sensor_id;sensor_type;location;lat;lon;timestamp;temperature;humidity
55036;DHT22;40936;53.008;6.556;2022-08-01T00:00:09;20.50;99.90
55036;DHT22;40936;53.008;6.556;2022-08-01T00:02:39;19.90;99.90
55036;DHT22;40936;53.008;6.556;2022-08-01T00:05:06;19.50;99.90
55036;DHT22;40936;53.008;6.556;2022-08-01T00:07:33;19.30;99.90
55036;DHT22;40936;53.008;6.556;2022-08-01T00:09:58;20.50;99.90
55036;DHT22;40936;53.008;6.556;2022-08-01T00:12:24;20.40;99.90
55036;DHT22;40936;53.008;6.556;2022-08-01T00:14:50;20.40;99.90
55036;DHT22;40936;53.008;6.556;2022-08-01T00:17:15;19.50;99.90
55036;DHT22;40936;53.008;6.556;2022-08-01T00:19:41;19.60;99.90
55036;DHT22;40936;53.008;6.556;2022-08-01T00:22:07;20.10;99.90
55036;DHT22;40936;53.008;6.556;2022-08-01T00:24:33;20.20;99.90
55036;DHT22;40936;53.008;6.556;2022-08-01T00:26:59;20.30;99.90
55036;DHT22;40936;53.008;6.556;2022-08-01T00:29:25;19.80;99.90
55036;DHT22;40936;53.008;6.556;2022-08-01T00:31:50;19.50;99.90
55036;DHT22;40936;53.008;6.556;2022-08-01T00:34:16;20.50;99.90
55036;DHT22;40936;53.008;6.556;2022-08-01T00:36:42;20.40;99.90
55036;DHT22;40936;53.008;6.556;2022-08-01T00:39:07;19.50;99.90
55036;DHT22;40936;53.008;6.556;2022-08-01T00:41:33;19.50;99.90
55036;DHT22;40936;53.008;6.556;2022-08-01T00:44:03;20.40;99.90
55036;DHT22;40936;53.008;6.556;2022-08-01T00:46:29;19.70;99.90
55036;DHT22;40936;53.008;6.556;2022-08-01T00:48:54;19.60;99.90
55036;DHT22;40936;53.008;6.556;2022-08-01T00:51:21;19.50;99.90
55036;DHT22;40936;53.008;6.556;2022-08-01T00:53:47;19.70;99.90
55036;DHT22;40936;53.008;6.556;2022-08-01T00:56:14;19.90;99.90
55036;DHT22;40936;53.008;6.556;2022-08-01T00:58:39;19.50;99.90
55036;DHT22;40936;53.008;6.556;2022-08-01T01:01:05;19.40;99.90
55036;DHT22;40936;53.008;6.556;2022-08-01T01:03:31;20.40;99.90
55036;DHT22;40936;53.008;6.556;2022-08-01T01:17:35;20.30;99.90
55036;DHT22;40936;53.008;6.556;2022-08-01T01:20:03;19.60;99.90
55036;DHT22;40936;53.008;6.556;2022-08-01T01:27:57;19.80;99.90
55036;DHT22;40936;53.008;6.556;2022-08-01T01:30:25;20.50;99.90
55036;DHT22;40936;53.008;6.556;2022-08-01T01:32:54;20.50;99.90
55036;DHT22;40936;53.008;6.556;2022-08-01T01:35:27;19.90;99.90
55036;DHT22;40936;53.008;6.556;2022-08-01T01:40:46;20.40;99.90
55036;DHT22;40936;53.008;6.556;2022-08-01T01:43:13;20.30;99.90
55036;DHT22;40936;53.008;6.556;2022-08-01T01:45:41;20.40;99.90
55036;DHT22;40936;53.008;6.556;2022-08-01T01:48:09;20.50;99.90
55036;DHT22;40936;53.008;6.556;2022-08-01T01:50:36;20.30;99.90
55036;DHT22;40936;53.008;6.556;2022-08-01T01:53:04;20.50;99.90
55036;DHT22;40936;53.008;6.556;2022-08-01T01:55:31;20.50;99.90
55036;DHT22;40936;53.008;6.556;2022-08-01T01:57:59;19.70;99.90
55036;DHT22;40936;53.008;6.556;2022-08-01T02:00:25;19.50;99.90
55036;DHT22;40936;53.008;6.556;2022-08-01T02:02:52;20.20;99.90
55036;DHT22;40936;53.008;6.556;2022-08-01T02:05:20;20.50;99.90
55036;DHT22;40936;53.008;6.556;2022-08-01T02:07:47;19.90;99.90
55036;DHT22;40936;53.008;6.556;2022-08-01T02:10:15;20.50;99.90
55036;DHT22;40936;53.008;6.556;2022-08-01T02:12:44;20.00;99.90
55036;DHT22;40936;53.008;6.556;2022-08-01T02:15:12;19.50;99.90
55036;DHT22;40936;53.008;6.556;2022-08-01T02:17:45;20.30;99.90
55036;DHT22;40936;53.008;6.556;2022-08-01T02:20:13;20.30;99.90
55036;DHT22;40936;53.008;6.556;2022-08-01T02:22:49;20.30;99.90
55036;DHT22;40936;53.008;6.556;2022-08-01T02:30:17;19.30;99.90
55036;DHT22;40936;53.008;6.556;2022-08-01T02:32:46;19.90;99.90
55036;DHT22;40936;53.008;6.556;2022-08-01T02:35:27;20.20;99.90
55036;DHT22;40936;53.008;6.556;2022-08-01T02:37:57;19.20;99.90
55036;DHT22;40936;53.008;6.556;2022-08-01T02:40:24;20.20;99.90
55036;DHT22;40936;53.008;6.556;2022-08-01T02:42:52;19.20;99.90
55036;DHT22;40936;53.008;6.556;2022-08-01T02:45:24;19.60;99.90
55036;DHT22;40936;53.008;6.556;2022-08-01T02:47:52;19.30;99.90
55036;DHT22;40936;53.008;6.556;2022-08-01T02:50:20;19.20;99.90
55036;DHT22;40936;53.008;6.556;2022-08-01T02:52:48;20.20;99.90
55036;DHT22;40936;53.008;6.556;2022-08-01T02:55:16;20.10;99.90
55036;DHT22;40936;53.008;6.556;2022-08-01T02:57:44;20.10;99.90
55036;DHT22;40936;53.008;6.556;2022-08-01T03:00:11;19.10;99.90
55036;DHT22;40936;53.008;6.556;2022-08-01T03:02:37;19.40;99.90
55036;DHT22;40936;53.008;6.556;2022-08-01T03:05:04;19.20;99.90
55036;DHT22;40936;53.008;6.556;2022-08-01T03:07:30;20.10;99.90
55036;DHT22;40936;53.008;6.556;2022-08-01T03:09:57;20.10;99.90
55036;DHT22;40936;53.008;6.556;2022-08-01T03:12:26;19.90;99.90
55036;DHT22;40936;53.008;6.556;2022-08-01T03:14:56;19.10;99.90
55036;DHT22;40936;53.008;6.556;2022-08-01T03:17:24;20.10;99.90
55036;DHT22;40936;53.008;6.556;2022-08-01T03:19:52;20.10;99.90
55036;DHT22;40936;53.008;6.556;2022-08-01T03:22:18;20.10;99.90
55036;DHT22;40936;53.008;6.556;2022-08-01T03:24:48;19.30;99.90
55036;DHT22;40936;53.008;6.556;2022-08-01T03:27:16;19.70;99.90
55036;DHT22;40936;53.008;6.556;2022-08-01T03:29:45;20.00;99.90
55036;DHT22;40936;53.008;6.556;2022-08-01T03:32:12;19.20;99.90
55036;DHT22;40936;53.008;6.556;2022-08-01T03:34:39;19.00;99.90
55036;DHT22;40936;53.008;6.556;2022-08-01T03:37:06;19.90;99.90
55036;DHT22;40936;53.008;6.556;2022-08-01T03:39:36;19.30;99.90
55036;DHT22;40936;53.008;6.556;2022-08-01T03:42:12;19.80;99.90
55036;DHT22;40936;53.008;6.556;2022-08-01T03:44:40;18.80;99.90
55036;DHT22;40936;53.008;6.556;2022-08-01T03:47:08;19.80;99.90
55036;DHT22;40936;53.008;6.556;2022-08-01T03:49:42;19.50;99.90
55036;DHT22;40936;53.008;6.556;2022-08-01T03:52:10;19.20;99.90
55036;DHT22;40936;53.008;6.556;2022-08-01T03:54:40;19.20;99.90
55036;DHT22;40936;53.008;6.556;2022-08-01T03:57:06;19.40;99.90
55036;DHT22;40936;53.008;6.556;2022-08-01T03:59:34;19.60;99.90
55036;DHT22;40936;53.008;6.556;2022-08-01T04:02:02;18.90;99.90
55036;DHT22;40936;53.008;6.556;2022-08-01T04:04:28;19.80;99.90
55036;DHT22;40936;53.008;6.556;2022-08-01T04:06:55;18.90;99.90
55036;DHT22;40936;53.008;6.556;2022-08-01T04:09:21;18.90;99.90
55036;DHT22;40936;53.008;6.556;2022-08-01T04:11:47;19.20;99.90
55036;DHT22;40936;53.008;6.556;2022-08-01T04:14:13;19.80;99.90
55036;DHT22;40936;53.008;6.556;2022-08-01T04:16:39;19.50;99.90
55036;DHT22;40936;53.008;6.556;2022-08-01T04:19:05;19.80;99.90
55036;DHT22;40936;53.008;6.556;2022-08-01T04:21:34;18.90;99.90
55036;DHT22;40936;53.008;6.556;2022-08-01T04:24:12;19.00;99.90
55036;DHT22;40936;53.008;6.556;2022-08-01T04:26:39;19.50;99.90
55036;DHT22;40936;53.008;6.556;2022-08-01T04:29:06;19.00;99.90
55036;DHT22;40936;53.008;6.556;2022-08-01T04:31:34;19.00;99.90
55036;DHT22;40936;53.008;6.556;2022-08-01T04:34:01;19.00;99.90
55036;DHT22;40936;53.008;6.556;2022-08-01T04:36:28;19.20;99.90
55036;DHT22;40936;53.008;6.556;2022-08-01T04:39:00;18.90;99.90
55036;DHT22;40936;53.008;6.556;2022-08-01T04:41:26;19.20;99.90
55036;DHT22;40936;53.008;6.556;2022-08-01T04:43:52;19.60;99.90
55036;DHT22;40936;53.008;6.556;2022-08-01T04:46:19;19.90;99.90
55036;DHT22;40936;53.008;6.556;2022-08-01T04:48:46;19.90;99.90
55036;DHT22;40936;53.008;6.556;2022-08-01T04:51:15;19.40;99.90
55036;DHT22;40936;53.008;6.556;2022-08-01T04:53:42;19.80;99.90
55036;DHT22;40936;53.008;6.556;2022-08-01T04:56:08;19.90;99.90
55036;DHT22;40936;53.008;6.556;2022-08-01T04:58:34;19.00;99.90
55036;DHT22;40936;53.008;6.556;2022-08-01T05:01:00;19.70;99.90
55036;DHT22;40936;53.008;6.556;2022-08-01T05:03:26;19.00;99.90
55036;DHT22;40936;53.008;6.556;2022-08-01T05:05:51;19.70;99.90
55036;DHT22;40936;53.008;6.556;2022-08-01T05:08:17;19.20;99.90
55036;DHT22;40936;53.008;6.556;2022-08-01T05:10:42;20.00;99.90
55036;DHT22;40936;53.008;6.556;2022-08-01T05:13:08;19.90;99.90
55036;DHT22;40936;53.008;6.556;2022-08-01T05:15:35;19.40;99.90
55036;DHT22;40936;53.008;6.556;2022-08-01T05:18:04;19.10;99.90
55036;DHT22;40936;53.008;6.556;2022-08-01T05:20:30;19.20;99.90
55036;DHT22;40936;53.008;6.556;2022-08-01T05:22:57;19.30;99.90
55036;DHT22;40936;53.008;6.556;2022-08-01T05:25:22;19.90;99.90
55036;DHT22;40936;53.008;6.556;2022-08-01T05:27:49;20.20;99.90
55036;DHT22;40936;53.008;6.556;2022-08-01T05:30:15;19.60;99.90
55036;DHT22;40936;53.008;6.556;2022-08-01T05:32:40;19.40;99.90
55036;DHT22;40936;53.008;6.556;2022-08-01T05:35:08;20.00;99.90
55036;DHT22;40936;53.008;6.556;2022-08-01T05:37:34;20.20;99.90
55036;DHT22;40936;53.008;6.556;2022-08-01T05:40:00;20.10;99.90
55036;DHT22;40936;53.008;6.556;2022-08-01T05:42:26;19.20;99.90
55036;DHT22;40936;53.008;6.556;2022-08-01T05:44:52;19.90;99.90
55036;DHT22;40936;53.008;6.556;2022-08-01T05:47:18;19.40;99.90
55036;DHT22;40936;53.008;6.556;2022-08-01T05:49:44;20.10;99.90
55036;DHT22;40936;53.008;6.556;2022-08-01T05:52:10;19.30;99.90
55036;DHT22;40936;53.008;6.556;2022-08-01T05:54:36;19.20;99.90
55036;DHT22;40936;53.008;6.556;2022-08-01T05:57:02;19.70;99.90
55036;DHT22;40936;53.008;6.556;2022-08-01T05:59:29;20.20;99.90
55036;DHT22;40936;53.008;6.556;2022-08-01T06:01:55;19.30;99.90
55036;DHT22;40936;53.008;6.556;2022-08-01T06:04:21;19.30;99.90
55036;DHT22;40936;53.008;6.556;2022-08-01T06:06:46;19.30;99.90
55036;DHT22;40936;53.008;6.556;2022-08-01T06:09:12;19.40;99.90
55036;DHT22;40936;53.008;6.556;2022-08-01T06:11:38;19.40;99.90
55036;DHT22;40936;53.008;6.556;2022-08-01T06:14:03;20.30;99.90
55036;DHT22;40936;53.008;6.556;2022-08-01T06:16:29;20.20;99.90
55036;DHT22;40936;53.008;6.556;2022-08-01T06:18:55;20.40;99.90
55036;DHT22;40936;53.008;6.556;2022-08-01T06:21:20;20.30;99.90
55036;DHT22;40936;53.008;6.556;2022-08-01T06:23:46;20.40;99.90
55036;DHT22;40936;53.008;6.556;2022-08-01T06:26:12;20.40;99.90
55036;DHT22;40936;53.008;6.556;2022-08-01T06:28:38;20.30;99.90
55036;DHT22;40936;53.008;6.556;2022-08-01T06:31:05;19.40;99.90
55036;DHT22;40936;53.008;6.556;2022-08-01T06:33:30;20.00;99.90
55036;DHT22;40936;53.008;6.556;2022-08-01T06:35:56;19.50;99.90
55036;DHT22;40936;53.008;6.556;2022-08-01T06:38:22;20.20;99.90
55036;DHT22;40936;53.008;6.556;2022-08-01T06:40:48;20.10;99.90
55036;DHT22;40936;53.008;6.556;2022-08-01T06:43:13;19.40;99.90
55036;DHT22;40936;53.008;6.556;2022-08-01T06:45:40;20.10;99.90
55036;DHT22;40936;53.008;6.556;2022-08-01T06:48:06;19.40;99.90
55036;DHT22;40936;53.008;6.556;2022-08-01T06:50:33;20.10;99.90
55036;DHT22;40936;53.008;6.556;2022-08-01T06:53:01;19.30;99.90
55036;DHT22;40936;53.008;6.556;2022-08-01T06:55:26;20.00;99.90
55036;DHT22;40936;53.008;6.556;2022-08-01T06:57:53;19.40;99.90
55036;DHT22;40936;53.008;6.556;2022-08-01T07:00:20;19.40;99.90
55036;DHT22;40936;53.008;6.556;2022-08-01T07:02:52;20.20;99.90
55036;DHT22;40936;53.008;6.556;2022-08-01T07:05:18;19.40;99.90
55036;DHT22;40936;53.008;6.556;2022-08-01T07:07:44;20.10;99.90
55036;DHT22;40936;53.008;6.556;2022-08-01T07:10:10;19.50;99.90
55036;DHT22;40936;53.008;6.556;2022-08-01T07:12:36;20.30;99.90
55036;DHT22;40936;53.008;6.556;2022-08-01T07:15:07;20.20;99.90
55036;DHT22;40936;53.008;6.556;2022-08-01T07:17:37;19.70;99.90
55036;DHT22;40936;53.008;6.556;2022-08-01T07:20:03;20.50;99.90
55036;DHT22;40936;53.008;6.556;2022-08-01T07:22:29;19.90;99.90
55036;DHT22;40936;53.008;6.556;2022-08-01T07:24:55;20.50;99.90
55036;DHT22;40936;53.008;6.556;2022-08-01T07:27:20;19.80;99.90
55036;DHT22;40936;53.008;6.556;2022-08-01T07:29:46;20.80;99.90
55036;DHT22;40936;53.008;6.556;2022-08-01T07:32:12;20.10;99.90
55036;DHT22;40936;53.008;6.556;2022-08-01T07:34:37;20.90;99.90
55036;DHT22;40936;53.008;6.556;2022-08-01T07:37:03;20.10;99.90
55036;DHT22;40936;53.008;6.556;2022-08-01T07:39:29;20.30;99.90
55036;DHT22;40936;53.008;6.556;2022-08-01T07:41:54;21.10;99.90
55036;DHT22;40936;53.008;6.556;2022-08-01T07:44:20;20.50;99.90
55036;DHT22;40936;53.008;6.556;2022-08-01T07:46:46;20.60;99.90
55036;DHT22;40936;53.008;6.556;2022-08-01T07:49:11;20.50;99.90
55036;DHT22;40936;53.008;6.556;2022-08-01T07:51:37;21.10;99.90
55036;DHT22;40936;53.008;6.556;2022-08-01T07:54:03;21.10;99.90
55036;DHT22;40936;53.008;6.556;2022-08-01T07:56:29;20.60;99.90
55036;DHT22;40936;53.008;6.556;2022-08-01T07:58:54;21.50;99.90
55036;DHT22;40936;53.008;6.556;2022-08-01T08:01:20;21.70;99.90
55036;DHT22;40936;53.008;6.556;2022-08-01T08:03:46;21.60;99.90
55036;DHT22;40936;53.008;6.556;2022-08-01T08:06:12;22.00;99.90
55036;DHT22;40936;53.008;6.556;2022-08-01T08:08:37;22.50;99.90
55036;DHT22;40936;53.008;6.556;2022-08-01T08:11:03;23.70;99.90
55036;DHT22;40936;53.008;6.556;2022-08-01T08:13:29;24.50;99.90
55036;DHT22;40936;53.008;6.556;2022-08-01T08:15:55;25.50;99.90
55036;DHT22;40936;53.008;6.556;2022-08-01T08:18:21;26.60;99.90
55036;DHT22;40936;53.008;6.556;2022-08-01T08:20:46;27.30;99.90
55036;DHT22;40936;53.008;6.556;2022-08-01T08:23:12;27.10;99.90
55036;DHT22;40936;53.008;6.556;2022-08-01T08:25:56;26.60;99.90
55036;DHT22;40936;53.008;6.556;2022-08-01T08:28:22;26.20;99.90
55036;DHT22;40936;53.008;6.556;2022-08-01T08:30:47;26.30;99.90
55036;DHT22;40936;53.008;6.556;2022-08-01T08:33:13;26.50;99.90
55036;DHT22;40936;53.008;6.556;2022-08-01T08:35:39;26.30;99.90
55036;DHT22;40936;53.008;6.556;2022-08-01T08:38:07;26.20;99.90
55036;DHT22;40936;53.008;6.556;2022-08-01T08:40:35;26.80;99.90
55036;DHT22;40936;53.008;6.556;2022-08-01T08:43:00;27.70;99.90
55036;DHT22;40936;53.008;6.556;2022-08-01T08:45:27;28.10;99.90
55036;DHT22;40936;53.008;6.556;2022-08-01T08:47:54;28.50;99.90
55036;DHT22;40936;53.008;6.556;2022-08-01T08:50:23;29.10;99.90
55036;DHT22;40936;53.008;6.556;2022-08-01T08:52:49;29.70;99.90
55036;DHT22;40936;53.008;6.556;2022-08-01T08:55:17;29.80;99.90
55036;DHT22;40936;53.008;6.556;2022-08-01T08:57:44;30.20;99.90
55036;DHT22;40936;53.008;6.556;2022-08-01T09:00:10;30.70;99.90
55036;DHT22;40936;53.008;6.556;2022-08-01T09:02:41;30.90;99.90
55036;DHT22;40936;53.008;6.556;2022-08-01T09:05:08;30.30;99.90
55036;DHT22;40936;53.008;6.556;2022-08-01T09:07:34;31.10;99.90
55036;DHT22;40936;53.008;6.556;2022-08-01T09:09:59;31.50;99.90
55036;DHT22;40936;53.008;6.556;2022-08-01T09:12:25;32.00;99.90
55036;DHT22;40936;53.008;6.556;2022-08-01T09:14:51;31.70;99.90
55036;DHT22;40936;53.008;6.556;2022-08-01T09:17:19;31.30;99.90
55036;DHT22;40936;53.008;6.556;2022-08-01T09:19:54;31.10;99.90
55036;DHT22;40936;53.008;6.556;2022-08-01T09:22:22;30.80;99.90
55036;DHT22;40936;53.008;6.556;2022-08-01T09:25:00;31.00;99.90
55036;DHT22;40936;53.008;6.556;2022-08-01T09:27:26;30.20;99.90
55036;DHT22;40936;53.008;6.556;2022-08-01T09:29:53;29.80;99.90
55036;DHT22;40936;53.008;6.556;2022-08-01T09:32:20;30.60;99.90
55036;DHT22;40936;53.008;6.556;2022-08-01T09:34:46;30.80;99.90
55036;DHT22;40936;53.008;6.556;2022-08-01T09:37:12;30.00;99.90
55036;DHT22;40936;53.008;6.556;2022-08-01T09:39:42;30.00;99.90
55036;DHT22;40936;53.008;6.556;2022-08-01T09:42:24;30.50;99.90
55036;DHT22;40936;53.008;6.556;2022-08-01T09:44:50;30.60;99.90
55036;DHT22;40936;53.008;6.556;2022-08-01T09:47:16;31.10;99.90
55036;DHT22;40936;53.008;6.556;2022-08-01T09:49:44;32.10;99.90
55036;DHT22;40936;53.008;6.556;2022-08-01T09:52:36;31.70;99.90
55036;DHT22;40936;53.008;6.556;2022-08-01T09:55:05;31.90;99.90
55036;DHT22;40936;53.008;6.556;2022-08-01T09:57:31;31.40;99.90
55036;DHT22;40936;53.008;6.556;2022-08-01T09:59:59;31.70;99.90
55036;DHT22;40936;53.008;6.556;2022-08-01T10:02:36;32.30;99.90
55036;DHT22;40936;53.008;6.556;2022-08-01T10:05:05;32.70;99.90
55036;DHT22;40936;53.008;6.556;2022-08-01T10:07:31;32.30;99.90
55036;DHT22;40936;53.008;6.556;2022-08-01T10:10:10;31.60;99.90
55036;DHT22;40936;53.008;6.556;2022-08-01T10:12:36;31.40;99.90
55036;DHT22;40936;53.008;6.556;2022-08-01T10:15:03;31.20;99.90
55036;DHT22;40936;53.008;6.556;2022-08-01T10:17:30;31.70;99.90
55036;DHT22;40936;53.008;6.556;2022-08-01T10:19:56;31.90;99.90
55036;DHT22;40936;53.008;6.556;2022-08-01T10:22:24;31.70;99.90
55036;DHT22;40936;53.008;6.556;2022-08-01T10:24:54;32.20;99.90
55036;DHT22;40936;53.008;6.556;2022-08-01T10:27:21;32.90;99.90
55036;DHT22;40936;53.008;6.556;2022-08-01T10:29:50;32.90;99.90
55036;DHT22;40936;53.008;6.556;2022-08-01T10:32:17;32.90;99.90
55036;DHT22;40936;53.008;6.556;2022-08-01T10:34:43;31.40;99.90
55036;DHT22;40936;53.008;6.556;2022-08-01T10:37:10;31.40;99.90
55036;DHT22;40936;53.008;6.556;2022-08-01T10:39:39;31.70;92.50
55036;DHT22;40936;53.008;6.556;2022-08-01T10:42:04;32.30;1.00
55036;DHT22;40936;53.008;6.556;2022-08-01T10:44:31;32.60;99.90
55036;DHT22;40936;53.008;6.556;2022-08-01T10:47:09;32.80;1.00
55036;DHT22;40936;53.008;6.556;2022-08-01T10:49:41;33.20;1.00
55036;DHT22;40936;53.008;6.556;2022-08-01T10:52:14;33.60;20.00
55036;DHT22;40936;53.008;6.556;2022-08-01T10:54:40;33.10;1.00
55036;DHT22;40936;53.008;6.556;2022-08-01T10:57:06;32.00;1.00
55036;DHT22;40936;53.008;6.556;2022-08-01T10:59:32;31.50;1.00
55036;DHT22;40936;53.008;6.556;2022-08-01T11:02:03;31.70;1.00
55036;DHT22;40936;53.008;6.556;2022-08-01T11:07:21;33.00;99.90
55036;DHT22;40936;53.008;6.556;2022-08-01T11:10:03;33.40;99.90
55036;DHT22;40936;53.008;6.556;2022-08-01T11:12:40;33.30;99.90
55036;DHT22;40936;53.008;6.556;2022-08-01T11:20:15;32.30;76.20
55036;DHT22;40936;53.008;6.556;2022-08-01T11:30:50;33.30;6.70
55036;DHT22;40936;53.008;6.556;2022-08-01T11:33:18;33.40;1.00
55036;DHT22;40936;53.008;6.556;2022-08-01T11:38:37;32.40;1.00
55036;DHT22;40936;53.008;6.556;2022-08-01T11:41:25;32.50;1.00
55036;DHT22;40936;53.008;6.556;2022-08-01T11:46:55;32.50;1.00
55036;DHT22;40936;53.008;6.556;2022-08-01T11:52:26;33.30;1.00
55036;DHT22;40936;53.008;6.556;2022-08-01T11:55:00;33.40;1.00
55036;DHT22;40936;53.008;6.556;2022-08-01T11:57:31;33.60;1.00
55036;DHT22;40936;53.008;6.556;2022-08-01T12:00:11;33.60;1.00
55036;DHT22;40936;53.008;6.556;2022-08-01T12:02:37;33.40;1.00
55036;DHT22;40936;53.008;6.556;2022-08-01T12:05:10;32.60;1.00
55036;DHT22;40936;53.008;6.556;2022-08-01T12:07:41;32.60;1.00
55036;DHT22;40936;53.008;6.556;2022-08-01T12:12:36;33.20;1.00
55036;DHT22;40936;53.008;6.556;2022-08-01T12:15:05;33.70;1.00
55036;DHT22;40936;53.008;6.556;2022-08-01T12:19:59;33.60;1.00
55036;DHT22;40936;53.008;6.556;2022-08-01T12:22:25;32.90;1.00
55036;DHT22;40936;53.008;6.556;2022-08-01T12:24:51;32.10;1.00
55036;DHT22;40936;53.008;6.556;2022-08-01T12:27:29;31.50;1.00
55036;DHT22;40936;53.008;6.556;2022-08-01T12:29:56;31.30;1.00
55036;DHT22;40936;53.008;6.556;2022-08-01T12:32:24;30.90;1.00
55036;DHT22;40936;53.008;6.556;2022-08-01T12:34:51;30.80;1.00
55036;DHT22;40936;53.008;6.556;2022-08-01T12:37:17;30.30;1.00
55036;DHT22;40936;53.008;6.556;2022-08-01T12:39:44;29.70;1.00
55036;DHT22;40936;53.008;6.556;2022-08-01T12:42:10;29.40;1.00
55036;DHT22;40936;53.008;6.556;2022-08-01T12:44:37;29.30;1.00
55036;DHT22;40936;53.008;6.556;2022-08-01T12:47:07;29.10;1.00
55036;DHT22;40936;53.008;6.556;2022-08-01T12:49:35;28.70;1.00
55036;DHT22;40936;53.008;6.556;2022-08-01T12:52:01;28.40;1.00
55036;DHT22;40936;53.008;6.556;2022-08-01T12:54:27;28.10;1.00
55036;DHT22;40936;53.008;6.556;2022-08-01T12:56:53;28.00;1.00
55036;DHT22;40936;53.008;6.556;2022-08-01T12:59:27;28.00;1.00
55036;DHT22;40936;53.008;6.556;2022-08-01T13:01:55;27.90;1.00
55036;DHT22;40936;53.008;6.556;2022-08-01T13:04:22;27.70;1.00
55036;DHT22;40936;53.008;6.556;2022-08-01T13:06:52;27.40;1.00
55036;DHT22;40936;53.008;6.556;2022-08-01T13:09:18;27.20;1.00
55036;DHT22;40936;53.008;6.556;2022-08-01T13:11:44;26.90;1.00
55036;DHT22;40936;53.008;6.556;2022-08-01T13:14:29;26.90;1.00
55036;DHT22;40936;53.008;6.556;2022-08-01T13:16:55;26.80;1.00
55036;DHT22;40936;53.008;6.556;2022-08-01T13:19:20;26.70;1.00
55036;DHT22;40936;53.008;6.556;2022-08-01T13:21:56;26.50;1.00
55036;DHT22;40936;53.008;6.556;2022-08-01T13:24:27;26.30;1.00
55036;DHT22;40936;53.008;6.556;2022-08-01T13:29:43;25.80;1.00
55036;DHT22;40936;53.008;6.556;2022-08-01T13:34:39;25.80;1.00
55036;DHT22;40936;53.008;6.556;2022-08-01T13:37:05;25.70;1.00
55036;DHT22;40936;53.008;6.556;2022-08-01T13:39:30;25.60;1.00
55036;DHT22;40936;53.008;6.556;2022-08-01T13:42:14;25.60;1.00
55036;DHT22;40936;53.008;6.556;2022-08-01T13:44:44;25.60;1.00
55036;DHT22;40936;53.008;6.556;2022-08-01T13:47:12;25.60;1.00
55036;DHT22;40936;53.008;6.556;2022-08-01T13:49:38;25.50;1.00
55036;DHT22;40936;53.008;6.556;2022-08-01T13:52:05;25.50;1.00
55036;DHT22;40936;53.008;6.556;2022-08-01T13:54:34;25.50;1.00
55036;DHT22;40936;53.008;6.556;2022-08-01T13:56:59;25.50;1.00
55036;DHT22;40936;53.008;6.556;2022-08-01T13:59:25;25.40;1.00
55036;DHT22;40936;53.008;6.556;2022-08-01T14:01:51;25.30;1.00
55036;DHT22;40936;53.008;6.556;2022-08-01T14:04:17;25.30;1.00
55036;DHT22;40936;53.008;6.556;2022-08-01T14:06:42;25.20;1.00
55036;DHT22;40936;53.008;6.556;2022-08-01T14:09:08;25.10;1.00
55036;DHT22;40936;53.008;6.556;2022-08-01T14:11:34;25.10;1.00
55036;DHT22;40936;53.008;6.556;2022-08-01T14:14:00;25.10;1.00
55036;DHT22;40936;53.008;6.556;2022-08-01T14:16:26;25.10;1.00
55036;DHT22;40936;53.008;6.556;2022-08-01T14:18:51;25.00;1.00
55036;DHT22;40936;53.008;6.556;2022-08-01T14:21:17;24.90;1.00
55036;DHT22;40936;53.008;6.556;2022-08-01T14:23:43;24.90;1.00
55036;DHT22;40936;53.008;6.556;2022-08-01T14:26:09;24.80;1.00
55036;DHT22;40936;53.008;6.556;2022-08-01T14:28:39;24.90;1.00
55036;DHT22;40936;53.008;6.556;2022-08-01T14:31:05;24.90;1.00
55036;DHT22;40936;53.008;6.556;2022-08-01T14:33:34;24.90;1.00
55036;DHT22;40936;53.008;6.556;2022-08-01T14:36:00;24.70;1.00
55036;DHT22;40936;53.008;6.556;2022-08-01T14:38:26;24.80;1.00
55036;DHT22;40936;53.008;6.556;2022-08-01T14:40:52;24.70;1.00
55036;DHT22;40936;53.008;6.556;2022-08-01T14:43:19;24.70;1.00
55036;DHT22;40936;53.008;6.556;2022-08-01T14:45:44;24.60;1.00
55036;DHT22;40936;53.008;6.556;2022-08-01T14:48:10;24.60;1.00
55036;DHT22;40936;53.008;6.556;2022-08-01T14:50:36;24.60;1.00
55036;DHT22;40936;53.008;6.556;2022-08-01T14:53:02;24.50;1.00
55036;DHT22;40936;53.008;6.556;2022-08-01T14:55:28;24.50;1.00
55036;DHT22;40936;53.008;6.556;2022-08-01T14:57:53;24.60;1.00
55036;DHT22;40936;53.008;6.556;2022-08-01T15:00:19;24.70;1.00
55036;DHT22;40936;53.008;6.556;2022-08-01T15:02:45;24.00;1.00
55036;DHT22;40936;53.008;6.556;2022-08-01T15:05:11;23.60;99.90
55036;DHT22;40936;53.008;6.556;2022-08-01T15:07:38;23.50;99.90
55036;DHT22;40936;53.008;6.556;2022-08-01T15:10:05;23.20;99.90
55036;DHT22;40936;53.008;6.556;2022-08-01T15:12:31;23.40;99.90
55036;DHT22;40936;53.008;6.556;2022-08-01T15:14:57;23.70;99.90
55036;DHT22;40936;53.008;6.556;2022-08-01T15:17:24;23.80;99.90
55036;DHT22;40936;53.008;6.556;2022-08-01T15:19:51;23.90;99.90
55036;DHT22;40936;53.008;6.556;2022-08-01T15:22:18;24.10;1.00
55036;DHT22;40936;53.008;6.556;2022-08-01T15:24:44;24.20;99.90
55036;DHT22;40936;53.008;6.556;2022-08-01T15:27:10;24.40;99.90
55036;DHT22;40936;53.008;6.556;2022-08-01T15:29:36;24.30;89.50
55036;DHT22;40936;53.008;6.556;2022-08-01T15:32:04;24.20;99.90
55036;DHT22;40936;53.008;6.556;2022-08-01T15:34:30;24.30;87.10
55036;DHT22;40936;53.008;6.556;2022-08-01T15:36:56;24.50;99.40
55036;DHT22;40936;53.008;6.556;2022-08-01T15:39:22;24.80;99.90
55036;DHT22;40936;53.008;6.556;2022-08-01T15:41:48;24.70;1.00
55036;DHT22;40936;53.008;6.556;2022-08-01T15:44:14;24.80;31.60
55036;DHT22;40936;53.008;6.556;2022-08-01T15:46:40;24.80;75.40
55036;DHT22;40936;53.008;6.556;2022-08-01T15:49:06;24.90;99.90
55036;DHT22;40936;53.008;6.556;2022-08-01T15:51:32;25.00;99.90
55036;DHT22;40936;53.008;6.556;2022-08-01T15:53:59;25.00;57.40
55036;DHT22;40936;53.008;6.556;2022-08-01T15:56:32;25.10;21.30
55036;DHT22;40936;53.008;6.556;2022-08-01T15:58:57;25.10;1.00
55036;DHT22;40936;53.008;6.556;2022-08-01T16:01:23;25.10;1.00
55036;DHT22;40936;53.008;6.556;2022-08-01T16:03:51;25.10;99.90
55036;DHT22;40936;53.008;6.556;2022-08-01T16:06:17;25.10;99.90
55036;DHT22;40936;53.008;6.556;2022-08-01T16:08:43;25.00;99.90
55036;DHT22;40936;53.008;6.556;2022-08-01T16:11:09;24.90;99.90
55036;DHT22;40936;53.008;6.556;2022-08-01T16:13:34;24.80;99.90
55036;DHT22;40936;53.008;6.556;2022-08-01T16:16:00;24.70;80.50
55036;DHT22;40936;53.008;6.556;2022-08-01T16:18:27;24.50;56.80
55036;DHT22;40936;53.008;6.556;2022-08-01T16:20:53;24.50;69.60
55036;DHT22;40936;53.008;6.556;2022-08-01T16:23:19;24.40;64.60
55036;DHT22;40936;53.008;6.556;2022-08-01T16:25:45;24.30;78.10
55036;DHT22;40936;53.008;6.556;2022-08-01T16:28:11;24.30;70.50
55036;DHT22;40936;53.008;6.556;2022-08-01T16:30:38;24.20;69.80
55036;DHT22;40936;53.008;6.556;2022-08-01T16:33:04;24.20;74.70
55036;DHT22;40936;53.008;6.556;2022-08-01T16:35:30;24.10;72.80